Tropical Cyclones
[Index]
Main Index Home Page Stock Weather Photos Extreme Storms Discussion Storm News and Storm Chasing Reports Tropical Cyclones / Hurricanes / Typhoons Weather Data and Links Wild Fires / Bushfires Weather Observation Techniques Weather Picture Catalogue Tornado Pictures and Reports Stock Video Footage and DVDs for sale
Season 1998-1999 Tropical Cyclone FREDERIC-EVRINA Track Map
Season 1998-1999 Summaries (Operational Data): [AU] [SIO] [SPAC] [SH]
<<- Previous TC | 1998-1999 Season | Next TC ->>

click for intensity scale information  Lat/long Grid: Show Hide

 Date Labels: Show Hide

Operational Tropical Cyclone Data : JTWC Advisories

Name: FREDERIC-EVRINA
Number: 9931

21 Mar 1999 04:00 UTC to 10 Apr 1999 18:00 UTC

    date/time    lat    long     hPa   cat  kts
1999-03-21 04    8.0   134.0    1006                     
1999-03-22 04    9.0   136.0    1008                     
1999-03-23 04    8.0   130.0    1008                     
1999-03-24 04   11.0   126.0    1005                     
1999-03-25 04   13.0   123.0    1005                     
1999-03-25 08   13.0   122.5    1007                     
1999-03-25 18   12.0   117.5    1007                     
1999-03-26 04   12.5   116.0    1002         25          
1999-03-26 10   13.1   114.5    1002         25          
1999-03-26 16   13.4   113.3    1000         25          
1999-03-26 22   13.9   113.0    1000         25          
1999-03-27 04   13.7   112.3    1000         30          
1999-03-27 10   13.9   111.2     998         30          
1999-03-27 16   14.3   109.9     998         30          
1999-03-27 22   14.9   108.9     997    1    45          
1999-03-28 04   15.0   108.0     994    1    45          
1999-03-28 10   16.0   107.0     995    1    45          
1999-03-28 16   15.8   106.4     988    2    55          
1999-03-28 22   16.0   105.3     980    2    55          
1999-03-29 04   15.8   103.4     975    2    60          
1999-03-29 10   16.0   102.3     970    2    60          
1999-03-29 16   16.7   100.7     955    3    75          
1999-03-29 22   16.8    99.5     950    3    80          
1999-03-30 04   17.0    98.0     940    4    90          
1999-03-30 10   17.2    96.6     920    5   110          
1999-03-30 16   17.1    95.4     920    5   110          
1999-03-30 22   17.2    94.0     920    5   110          
1999-03-31 04   17.4    93.0     920    5   110          
1999-03-31 10   17.6    91.9     920    5   110          
1999-03-31 16   17.5    91.4     915    5   110          
1999-03-31 22   17.5    90.7     915    5   110          
1999-04-01 04   17.6    90.0     925    5   110          
1999-04-01 12   17.8    89.4     925    4    95          
1999-04-01 18   17.8    88.7     940    3    85          
1999-04-02 00   17.9    87.9     955    3    70          
1999-04-02 06   17.9    86.6     972    2    55          
1999-04-02 12   18.1    85.3     975    2    53          
1999-04-02 18   18.1    84.0     975    2    53          
1999-04-03 00   18.0    82.9     978    2    50          
1999-04-03 06   18.0    81.9     978    2    50          
1999-04-03 12   18.0    80.6     978    2    50          
1999-04-03 18   18.1    79.2     980    2    48          
1999-04-04 00   18.3    77.7     983    1    45          
1999-04-04 06   18.4    76.4     987    1    40          
1999-04-04 12   18.7    74.7     990    1    37          
1999-04-04 18   18.8    73.5     992    1    35          
1999-04-05 00   19.0    72.2     992    1    35          
1999-04-05 06   19.0    71.1     995         30          
1999-04-05 12   18.8    69.8     995         30          
1999-04-05 18   18.7    68.9     997         30          
1999-04-06 00   18.8    67.8     997         30          
1999-04-06 06   18.9    66.8     997         30          
1999-04-06 12   18.7    65.9     998         28          
1999-04-06 18   18.9    65.1     998         28          
1999-04-07 00   19.4    64.3    1000         25          
1999-04-07 06   20.1    63.7    1000         25          
1999-04-07 12   20.2    62.8    1000         25          
1999-04-07 18   20.7    62.4    1002         25          
1999-04-08 00   21.6    62.4    1002         25          
1999-04-08 06   22.1    62.6    1002         25          
1999-04-08 12   22.3    63.8    1002         25          
1999-04-08 18   22.3    65.2    1004         20          
1999-04-09 00   22.3    66.9    1004         20          
1999-04-09 06   22.6    67.3    1005         20          
1999-04-09 12   22.3    67.7    1005         15          
1999-04-09 18   22.2    67.6    1007         15          
1999-04-10 00   22.1    67.4    1008         15          
1999-04-10 06   22.2    67.0    1010         15          
1999-04-10 12   22.3    66.5    1010         15          
1999-04-10 18   22.0    65.8    1012         15          
Winds are 10-min average.

Tropical cyclone tracks developed by Michael Bath using operational warnings and advisories and Google Maps.


[Australian Severe Weather index] [Copyright Notice] [Email Contacts] [Search This Site] [Privacy Policy]
Document: tropical_cyclone_frederic-evrina.htm Updated: 28 May 2013